sensor_id;sensor_type;location;lat;lon;timestamp;temperature;humidity
39021;DHT22;25188;51.958;5.842;2023-09-12T00:00:47;21.60;95.80
39021;DHT22;25188;51.958;5.842;2023-09-12T00:03:12;21.60;95.80
39021;DHT22;25188;51.958;5.842;2023-09-12T00:05:38;21.70;95.90
39021;DHT22;25188;51.958;5.842;2023-09-12T00:08:04;21.60;95.90
39021;DHT22;25188;51.958;5.842;2023-09-12T00:10:30;21.60;96.00
39021;DHT22;25188;51.958;5.842;2023-09-12T00:12:55;21.60;96.10
39021;DHT22;25188;51.958;5.842;2023-09-12T00:15:21;21.60;96.20
39021;DHT22;25188;51.958;5.842;2023-09-12T00:17:47;21.60;96.20
39021;DHT22;25188;51.958;5.842;2023-09-12T00:20:14;21.60;96.20
39021;DHT22;25188;51.958;5.842;2023-09-12T00:22:40;21.60;96.20
39021;DHT22;25188;51.958;5.842;2023-09-12T00:25:06;21.60;96.20
39021;DHT22;25188;51.958;5.842;2023-09-12T00:27:32;21.50;96.30
39021;DHT22;25188;51.958;5.842;2023-09-12T00:29:57;21.50;96.30
39021;DHT22;25188;51.958;5.842;2023-09-12T00:32:23;21.40;96.30
39021;DHT22;25188;51.958;5.842;2023-09-12T00:34:49;21.50;96.50
39021;DHT22;25188;51.958;5.842;2023-09-12T00:37:14;21.40;96.50
39021;DHT22;25188;51.958;5.842;2023-09-12T00:39:40;21.40;96.60
39021;DHT22;25188;51.958;5.842;2023-09-12T00:42:06;21.40;96.60
39021;DHT22;25188;51.958;5.842;2023-09-12T00:44:33;21.40;96.70
39021;DHT22;25188;51.958;5.842;2023-09-12T00:47:00;21.30;96.80
39021;DHT22;25188;51.958;5.842;2023-09-12T00:49:26;21.40;96.90
39021;DHT22;25188;51.958;5.842;2023-09-12T00:51:54;21.30;97.20
39021;DHT22;25188;51.958;5.842;2023-09-12T00:54:21;21.30;97.10
39021;DHT22;25188;51.958;5.842;2023-09-12T00:56:47;21.30;97.20
39021;DHT22;25188;51.958;5.842;2023-09-12T00:59:15;21.30;97.30
39021;DHT22;25188;51.958;5.842;2023-09-12T01:01:42;21.30;97.30
39021;DHT22;25188;51.958;5.842;2023-09-12T01:04:07;21.30;97.30
39021;DHT22;25188;51.958;5.842;2023-09-12T01:06:34;21.30;97.40
39021;DHT22;25188;51.958;5.842;2023-09-12T01:09:00;21.20;97.40
39021;DHT22;25188;51.958;5.842;2023-09-12T01:11:27;21.30;97.50
39021;DHT22;25188;51.958;5.842;2023-09-12T01:13:53;21.30;97.50
39021;DHT22;25188;51.958;5.842;2023-09-12T01:16:19;21.20;97.50
39021;DHT22;25188;51.958;5.842;2023-09-12T01:18:44;21.20;97.50
39021;DHT22;25188;51.958;5.842;2023-09-12T01:25:20;21.10;97.70
39021;DHT22;25188;51.958;5.842;2023-09-12T01:27:30;21.00;97.80
39021;DHT22;25188;51.958;5.842;2023-09-12T01:29:58;21.00;97.90
39021;DHT22;25188;51.958;5.842;2023-09-12T01:32:26;21.00;97.90
39021;DHT22;25188;51.958;5.842;2023-09-12T01:34:52;20.90;97.90
39021;DHT22;25188;51.958;5.842;2023-09-12T01:37:17;20.80;97.90
39021;DHT22;25188;51.958;5.842;2023-09-12T01:39:43;20.80;98.00
39021;DHT22;25188;51.958;5.842;2023-09-12T01:42:13;20.90;98.00
39021;DHT22;25188;51.958;5.842;2023-09-12T01:44:41;20.80;98.10
39021;DHT22;25188;51.958;5.842;2023-09-12T01:47:08;20.80;98.20
39021;DHT22;25188;51.958;5.842;2023-09-12T01:49:36;20.70;98.20
39021;DHT22;25188;51.958;5.842;2023-09-12T01:52:03;20.80;98.30
39021;DHT22;25188;51.958;5.842;2023-09-12T01:54:28;20.60;98.40
39021;DHT22;25188;51.958;5.842;2023-09-12T01:56:54;20.80;98.60
39021;DHT22;25188;51.958;5.842;2023-09-12T01:59:23;20.60;98.60
39021;DHT22;25188;51.958;5.842;2023-09-12T02:01:50;20.60;98.70
39021;DHT22;25188;51.958;5.842;2023-09-12T02:04:15;20.60;98.70
39021;DHT22;25188;51.958;5.842;2023-09-12T02:06:41;20.60;98.70
39021;DHT22;25188;51.958;5.842;2023-09-12T02:09:06;20.50;98.70
39021;DHT22;25188;51.958;5.842;2023-09-12T02:11:32;20.70;98.90
39021;DHT22;25188;51.958;5.842;2023-09-12T02:13:57;20.50;98.90
39021;DHT22;25188;51.958;5.842;2023-09-12T02:16:23;20.50;98.90
39021;DHT22;25188;51.958;5.842;2023-09-12T02:18:49;20.50;99.00
39021;DHT22;25188;51.958;5.842;2023-09-12T02:21:14;20.50;99.10
39021;DHT22;25188;51.958;5.842;2023-09-12T02:23:41;20.40;99.20
39021;DHT22;25188;51.958;5.842;2023-09-12T02:26:07;20.50;99.30
39021;DHT22;25188;51.958;5.842;2023-09-12T02:28:33;20.40;99.30
39021;DHT22;25188;51.958;5.842;2023-09-12T02:30:58;20.30;99.30
39021;DHT22;25188;51.958;5.842;2023-09-12T02:33:24;20.30;99.40
39021;DHT22;25188;51.958;5.842;2023-09-12T02:35:49;20.30;99.40
39021;DHT22;25188;51.958;5.842;2023-09-12T02:38:17;20.20;99.40
39021;DHT22;25188;51.958;5.842;2023-09-12T02:40:42;20.20;99.40
39021;DHT22;25188;51.958;5.842;2023-09-12T02:43:08;20.10;99.40
39021;DHT22;25188;51.958;5.842;2023-09-12T02:45:34;20.10;99.40
39021;DHT22;25188;51.958;5.842;2023-09-12T02:47:59;20.00;99.50
39021;DHT22;25188;51.958;5.842;2023-09-12T02:50:25;19.90;99.50
39021;DHT22;25188;51.958;5.842;2023-09-12T02:52:50;20.00;99.60
39021;DHT22;25188;51.958;5.842;2023-09-12T02:55:16;19.90;99.60
39021;DHT22;25188;51.958;5.842;2023-09-12T02:57:41;19.90;99.70
39021;DHT22;25188;51.958;5.842;2023-09-12T03:00:07;19.80;99.70
39021;DHT22;25188;51.958;5.842;2023-09-12T03:02:34;19.80;99.80
39021;DHT22;25188;51.958;5.842;2023-09-12T03:05:00;19.80;99.90
39021;DHT22;25188;51.958;5.842;2023-09-12T03:07:27;19.80;99.90
39021;DHT22;25188;51.958;5.842;2023-09-12T03:09:52;19.80;99.90
39021;DHT22;25188;51.958;5.842;2023-09-12T03:12:18;19.80;99.90
39021;DHT22;25188;51.958;5.842;2023-09-12T03:14:43;19.80;99.90
39021;DHT22;25188;51.958;5.842;2023-09-12T03:17:09;19.80;99.90
39021;DHT22;25188;51.958;5.842;2023-09-12T03:19:35;19.80;99.90
39021;DHT22;25188;51.958;5.842;2023-09-12T03:22:00;19.80;99.90
39021;DHT22;25188;51.958;5.842;2023-09-12T03:24:26;19.80;99.90
39021;DHT22;25188;51.958;5.842;2023-09-12T03:26:54;19.80;99.90
39021;DHT22;25188;51.958;5.842;2023-09-12T03:29:19;19.80;99.90
39021;DHT22;25188;51.958;5.842;2023-09-12T03:31:45;19.80;99.90
39021;DHT22;25188;51.958;5.842;2023-09-12T03:34:10;19.80;99.90
39021;DHT22;25188;51.958;5.842;2023-09-12T03:36:36;19.70;99.90
39021;DHT22;25188;51.958;5.842;2023-09-12T03:39:02;19.80;99.90
39021;DHT22;25188;51.958;5.842;2023-09-12T03:41:30;19.80;99.90
39021;DHT22;25188;51.958;5.842;2023-09-12T03:43:56;19.80;99.90
39021;DHT22;25188;51.958;5.842;2023-09-12T03:46:22;19.80;99.90
39021;DHT22;25188;51.958;5.842;2023-09-12T03:48:47;19.80;99.90
39021;DHT22;25188;51.958;5.842;2023-09-12T03:51:13;19.80;99.90
39021;DHT22;25188;51.958;5.842;2023-09-12T03:53:39;19.80;99.90
39021;DHT22;25188;51.958;5.842;2023-09-12T03:56:04;19.70;99.90
39021;DHT22;25188;51.958;5.842;2023-09-12T03:58:30;19.80;99.90
39021;DHT22;25188;51.958;5.842;2023-09-12T04:00:56;19.80;99.90
39021;DHT22;25188;51.958;5.842;2023-09-12T04:03:21;19.80;99.90
39021;DHT22;25188;51.958;5.842;2023-09-12T04:05:47;19.70;99.90
39021;DHT22;25188;51.958;5.842;2023-09-12T04:08:13;19.80;99.90
39021;DHT22;25188;51.958;5.842;2023-09-12T04:10:39;19.70;99.90
39021;DHT22;25188;51.958;5.842;2023-09-12T04:13:04;19.70;99.90
39021;DHT22;25188;51.958;5.842;2023-09-12T04:15:30;19.60;99.90
39021;DHT22;25188;51.958;5.842;2023-09-12T04:17:55;19.60;99.90
39021;DHT22;25188;51.958;5.842;2023-09-12T04:20:21;19.50;99.90
39021;DHT22;25188;51.958;5.842;2023-09-12T04:22:47;19.40;99.90
39021;DHT22;25188;51.958;5.842;2023-09-12T04:25:12;19.40;99.90
39021;DHT22;25188;51.958;5.842;2023-09-12T04:27:38;19.30;99.90
39021;DHT22;25188;51.958;5.842;2023-09-12T04:30:04;19.30;99.90
39021;DHT22;25188;51.958;5.842;2023-09-12T04:32:29;19.30;99.90
39021;DHT22;25188;51.958;5.842;2023-09-12T04:34:55;19.20;99.90
39021;DHT22;25188;51.958;5.842;2023-09-12T04:37:21;19.30;99.90
39021;DHT22;25188;51.958;5.842;2023-09-12T04:39:46;19.30;99.90
39021;DHT22;25188;51.958;5.842;2023-09-12T04:42:12;19.30;99.90
39021;DHT22;25188;51.958;5.842;2023-09-12T04:44:41;19.30;99.90
39021;DHT22;25188;51.958;5.842;2023-09-12T04:47:08;19.30;99.90
39021;DHT22;25188;51.958;5.842;2023-09-12T04:49:34;19.30;99.90
39021;DHT22;25188;51.958;5.842;2023-09-12T04:51:59;19.40;99.90
39021;DHT22;25188;51.958;5.842;2023-09-12T04:54:25;19.30;99.90
39021;DHT22;25188;51.958;5.842;2023-09-12T04:56:51;19.40;99.90
39021;DHT22;25188;51.958;5.842;2023-09-12T04:59:16;19.40;99.90
39021;DHT22;25188;51.958;5.842;2023-09-12T05:01:42;19.40;99.90
39021;DHT22;25188;51.958;5.842;2023-09-12T05:04:08;19.50;99.90
39021;DHT22;25188;51.958;5.842;2023-09-12T05:06:35;19.50;99.90
39021;DHT22;25188;51.958;5.842;2023-09-12T05:09:00;19.50;99.90
39021;DHT22;25188;51.958;5.842;2023-09-12T05:11:26;19.60;99.90
39021;DHT22;25188;51.958;5.842;2023-09-12T05:13:52;19.40;99.90
39021;DHT22;25188;51.958;5.842;2023-09-12T05:16:18;19.50;99.90
39021;DHT22;25188;51.958;5.842;2023-09-12T05:18:43;19.60;99.90
39021;DHT22;25188;51.958;5.842;2023-09-12T05:21:09;19.60;99.90
39021;DHT22;25188;51.958;5.842;2023-09-12T05:23:35;19.60;99.90
39021;DHT22;25188;51.958;5.842;2023-09-12T05:26:00;19.60;99.90
39021;DHT22;25188;51.958;5.842;2023-09-12T05:28:26;19.70;99.90
39021;DHT22;25188;51.958;5.842;2023-09-12T05:30:52;19.60;99.90
39021;DHT22;25188;51.958;5.842;2023-09-12T05:33:18;19.70;99.90
39021;DHT22;25188;51.958;5.842;2023-09-12T05:35:44;19.70;99.90
39021;DHT22;25188;51.958;5.842;2023-09-12T05:38:10;19.80;99.90
39021;DHT22;25188;51.958;5.842;2023-09-12T05:40:35;19.70;99.90
39021;DHT22;25188;51.958;5.842;2023-09-12T05:43:01;19.80;99.90
39021;DHT22;25188;51.958;5.842;2023-09-12T05:45:28;19.80;99.90
39021;DHT22;25188;51.958;5.842;2023-09-12T05:47:56;19.80;99.90
39021;DHT22;25188;51.958;5.842;2023-09-12T05:50:22;19.80;99.90
39021;DHT22;25188;51.958;5.842;2023-09-12T05:52:48;19.80;99.90
39021;DHT22;25188;51.958;5.842;2023-09-12T05:55:14;19.80;99.90
39021;DHT22;25188;51.958;5.842;2023-09-12T05:57:39;19.80;99.90
39021;DHT22;25188;51.958;5.842;2023-09-12T06:00:05;19.90;99.90
39021;DHT22;25188;51.958;5.842;2023-09-12T06:02:35;19.90;99.90
39021;DHT22;25188;51.958;5.842;2023-09-12T06:05:01;19.90;99.90
39021;DHT22;25188;51.958;5.842;2023-09-12T06:07:26;19.90;99.90
39021;DHT22;25188;51.958;5.842;2023-09-12T06:09:52;20.00;99.90
39021;DHT22;25188;51.958;5.842;2023-09-12T06:12:17;19.90;99.90
39021;DHT22;25188;51.958;5.842;2023-09-12T06:14:43;19.90;99.90
39021;DHT22;25188;51.958;5.842;2023-09-12T06:17:09;20.00;99.90
39021;DHT22;25188;51.958;5.842;2023-09-12T06:19:34;20.00;99.90
39021;DHT22;25188;51.958;5.842;2023-09-12T06:22:00;20.10;99.90
39021;DHT22;25188;51.958;5.842;2023-09-12T06:24:26;20.10;99.90
39021;DHT22;25188;51.958;5.842;2023-09-12T06:26:51;20.20;99.90
39021;DHT22;25188;51.958;5.842;2023-09-12T06:29:17;20.20;99.90
39021;DHT22;25188;51.958;5.842;2023-09-12T06:31:43;20.10;99.90
39021;DHT22;25188;51.958;5.842;2023-09-12T06:34:09;20.20;99.90
39021;DHT22;25188;51.958;5.842;2023-09-12T06:36:35;20.20;99.90
39021;DHT22;25188;51.958;5.842;2023-09-12T06:39:01;20.30;99.90
39021;DHT22;25188;51.958;5.842;2023-09-12T06:41:28;20.20;99.90
39021;DHT22;25188;51.958;5.842;2023-09-12T06:43:54;20.20;99.90
39021;DHT22;25188;51.958;5.842;2023-09-12T06:46:22;20.20;99.90
39021;DHT22;25188;51.958;5.842;2023-09-12T06:48:48;20.30;99.90
39021;DHT22;25188;51.958;5.842;2023-09-12T06:51:16;20.20;99.90
39021;DHT22;25188;51.958;5.842;2023-09-12T06:53:41;20.20;99.90
39021;DHT22;25188;51.958;5.842;2023-09-12T06:56:07;20.30;99.90
39021;DHT22;25188;51.958;5.842;2023-09-12T06:58:33;20.30;99.90
39021;DHT22;25188;51.958;5.842;2023-09-12T07:01:03;20.40;99.90
39021;DHT22;25188;51.958;5.842;2023-09-12T07:03:30;20.50;99.90
39021;DHT22;25188;51.958;5.842;2023-09-12T07:05:55;20.40;99.90
39021;DHT22;25188;51.958;5.842;2023-09-12T07:08:21;20.50;99.90
39021;DHT22;25188;51.958;5.842;2023-09-12T07:10:47;20.60;99.90
39021;DHT22;25188;51.958;5.842;2023-09-12T07:13:12;20.60;99.90
39021;DHT22;25188;51.958;5.842;2023-09-12T07:15:38;20.70;99.90
39021;DHT22;25188;51.958;5.842;2023-09-12T07:18:04;20.70;99.90
39021;DHT22;25188;51.958;5.842;2023-09-12T07:20:32;20.80;99.90
39021;DHT22;25188;51.958;5.842;2023-09-12T07:22:57;20.90;99.90
39021;DHT22;25188;51.958;5.842;2023-09-12T07:25:23;20.90;99.90
39021;DHT22;25188;51.958;5.842;2023-09-12T07:27:49;20.90;99.90
39021;DHT22;25188;51.958;5.842;2023-09-12T07:30:16;21.00;99.90
39021;DHT22;25188;51.958;5.842;2023-09-12T07:32:41;20.90;99.90
39021;DHT22;25188;51.958;5.842;2023-09-12T07:35:07;21.00;99.90
39021;DHT22;25188;51.958;5.842;2023-09-12T07:37:33;21.00;99.90
39021;DHT22;25188;51.958;5.842;2023-09-12T07:39:58;21.00;99.90
39021;DHT22;25188;51.958;5.842;2023-09-12T07:42:24;21.10;99.90
39021;DHT22;25188;51.958;5.842;2023-09-12T07:44:50;21.20;99.90
39021;DHT22;25188;51.958;5.842;2023-09-12T07:47:16;21.20;99.90
39021;DHT22;25188;51.958;5.842;2023-09-12T07:49:41;21.20;99.90
39021;DHT22;25188;51.958;5.842;2023-09-12T07:52:07;21.20;99.90
39021;DHT22;25188;51.958;5.842;2023-09-12T07:54:32;21.30;99.90
39021;DHT22;25188;51.958;5.842;2023-09-12T07:56:58;21.30;99.90
39021;DHT22;25188;51.958;5.842;2023-09-12T07:59:24;21.40;99.90
39021;DHT22;25188;51.958;5.842;2023-09-12T08:01:50;21.40;99.90
39021;DHT22;25188;51.958;5.842;2023-09-12T08:04:16;21.40;99.90
39021;DHT22;25188;51.958;5.842;2023-09-12T08:06:43;21.40;99.90
39021;DHT22;25188;51.958;5.842;2023-09-12T08:09:09;21.40;99.90
39021;DHT22;25188;51.958;5.842;2023-09-12T08:11:35;21.40;99.90
39021;DHT22;25188;51.958;5.842;2023-09-12T08:14:01;21.50;99.90
39021;DHT22;25188;51.958;5.842;2023-09-12T08:16:26;21.50;99.90
39021;DHT22;25188;51.958;5.842;2023-09-12T08:18:52;21.50;99.90
39021;DHT22;25188;51.958;5.842;2023-09-12T08:21:17;21.60;99.90
39021;DHT22;25188;51.958;5.842;2023-09-12T08:23:43;21.50;99.90
39021;DHT22;25188;51.958;5.842;2023-09-12T08:26:09;21.50;99.90
39021;DHT22;25188;51.958;5.842;2023-09-12T08:28:35;21.50;99.90
39021;DHT22;25188;51.958;5.842;2023-09-12T08:31:00;21.50;99.90
39021;DHT22;25188;51.958;5.842;2023-09-12T08:33:26;21.50;99.90
39021;DHT22;25188;51.958;5.842;2023-09-12T08:35:52;21.50;99.90
39021;DHT22;25188;51.958;5.842;2023-09-12T08:38:17;21.50;99.90
39021;DHT22;25188;51.958;5.842;2023-09-12T08:40:50;21.60;99.90
39021;DHT22;25188;51.958;5.842;2023-09-12T08:43:16;21.60;99.90
39021;DHT22;25188;51.958;5.842;2023-09-12T08:45:42;21.60;99.90
39021;DHT22;25188;51.958;5.842;2023-09-12T08:48:11;21.60;99.90
39021;DHT22;25188;51.958;5.842;2023-09-12T08:50:38;21.70;99.90
39021;DHT22;25188;51.958;5.842;2023-09-12T08:53:04;21.80;99.80
39021;DHT22;25188;51.958;5.842;2023-09-12T08:55:31;21.80;99.70
39021;DHT22;25188;51.958;5.842;2023-09-12T08:57:58;21.90;99.60
39021;DHT22;25188;51.958;5.842;2023-09-12T09:00:25;21.90;99.40
39021;DHT22;25188;51.958;5.842;2023-09-12T09:02:52;22.00;99.40
39021;DHT22;25188;51.958;5.842;2023-09-12T09:05:20;22.10;99.40
39021;DHT22;25188;51.958;5.842;2023-09-12T09:07:46;22.20;99.30
39021;DHT22;25188;51.958;5.842;2023-09-12T09:10:17;22.30;99.20
39021;DHT22;25188;51.958;5.842;2023-09-12T09:12:44;22.30;98.80
39021;DHT22;25188;51.958;5.842;2023-09-12T09:15:40;22.30;98.60
39021;DHT22;25188;51.958;5.842;2023-09-12T09:18:06;22.50;98.40
39021;DHT22;25188;51.958;5.842;2023-09-12T09:20:33;22.60;98.20
39021;DHT22;25188;51.958;5.842;2023-09-12T09:23:10;22.70;98.00
39021;DHT22;25188;51.958;5.842;2023-09-12T09:25:40;22.80;98.00
39021;DHT22;25188;51.958;5.842;2023-09-12T09:28:21;22.90;97.90
39021;DHT22;25188;51.958;5.842;2023-09-12T09:30:49;23.10;97.60
39021;DHT22;25188;51.958;5.842;2023-09-12T09:33:16;23.20;97.50
39021;DHT22;25188;51.958;5.842;2023-09-12T09:35:42;23.30;97.20
39021;DHT22;25188;51.958;5.842;2023-09-12T09:38:09;23.30;96.50
39021;DHT22;25188;51.958;5.842;2023-09-12T09:40:35;23.40;96.00
39021;DHT22;25188;51.958;5.842;2023-09-12T09:43:03;23.50;95.80
39021;DHT22;25188;51.958;5.842;2023-09-12T09:45:32;23.50;95.30
39021;DHT22;25188;51.958;5.842;2023-09-12T09:48:05;23.50;95.00
39021;DHT22;25188;51.958;5.842;2023-09-12T09:50:34;23.60;94.80
39021;DHT22;25188;51.958;5.842;2023-09-12T09:53:03;23.70;94.50
39021;DHT22;25188;51.958;5.842;2023-09-12T09:55:30;23.80;94.30
39021;DHT22;25188;51.958;5.842;2023-09-12T09:57:57;23.80;94.00
39021;DHT22;25188;51.958;5.842;2023-09-12T10:00:23;24.00;93.70
39021;DHT22;25188;51.958;5.842;2023-09-12T10:02:51;24.10;93.40
39021;DHT22;25188;51.958;5.842;2023-09-12T10:05:18;24.30;92.80
39021;DHT22;25188;51.958;5.842;2023-09-12T10:07:47;24.50;92.30
39021;DHT22;25188;51.958;5.842;2023-09-12T10:10:13;24.80;91.60
39021;DHT22;25188;51.958;5.842;2023-09-12T10:12:50;24.90;90.90
39021;DHT22;25188;51.958;5.842;2023-09-12T10:15:19;24.80;90.40
39021;DHT22;25188;51.958;5.842;2023-09-12T10:17:47;24.80;90.30
39021;DHT22;25188;51.958;5.842;2023-09-12T10:20:20;24.90;90.50
39021;DHT22;25188;51.958;5.842;2023-09-12T10:22:56;25.10;90.40
39021;DHT22;25188;51.958;5.842;2023-09-12T10:25:25;25.40;90.40
39021;DHT22;25188;51.958;5.842;2023-09-12T10:27:52;26.10;90.70
39021;DHT22;25188;51.958;5.842;2023-09-12T10:30:21;26.80;90.60
39021;DHT22;25188;51.958;5.842;2023-09-12T10:32:47;27.60;90.00
39021;DHT22;25188;51.958;5.842;2023-09-12T10:35:13;28.20;88.50
39021;DHT22;25188;51.958;5.842;2023-09-12T10:37:41;28.70;86.40
39021;DHT22;25188;51.958;5.842;2023-09-12T10:40:08;29.10;82.80
39021;DHT22;25188;51.958;5.842;2023-09-12T10:42:34;29.40;80.20
39021;DHT22;25188;51.958;5.842;2023-09-12T10:45:01;29.50;78.00
39021;DHT22;25188;51.958;5.842;2023-09-12T10:47:29;29.50;76.20
39021;DHT22;25188;51.958;5.842;2023-09-12T10:49:56;29.70;74.90
39021;DHT22;25188;51.958;5.842;2023-09-12T10:52:28;29.80;73.30
39021;DHT22;25188;51.958;5.842;2023-09-12T10:54:55;30.10;72.60
39021;DHT22;25188;51.958;5.842;2023-09-12T10:57:21;30.70;72.70
39021;DHT22;25188;51.958;5.842;2023-09-12T11:02:34;32.00;69.00
39021;DHT22;25188;51.958;5.842;2023-09-12T11:05:02;32.70;68.90
39021;DHT22;25188;51.958;5.842;2023-09-12T11:10:15;33.90;64.40
39021;DHT22;25188;51.958;5.842;2023-09-12T11:12:44;34.50;63.00
39021;DHT22;25188;51.958;5.842;2023-09-12T11:15:10;34.90;61.80
39021;DHT22;25188;51.958;5.842;2023-09-12T11:17:44;35.00;59.90
39021;DHT22;25188;51.958;5.842;2023-09-12T11:20:10;34.90;58.60
39021;DHT22;25188;51.958;5.842;2023-09-12T11:22:44;35.00;58.30
39021;DHT22;25188;51.958;5.842;2023-09-12T11:25:18;35.10;57.60
39021;DHT22;25188;51.958;5.842;2023-09-12T11:30:19;35.40;56.10
39021;DHT22;25188;51.958;5.842;2023-09-12T11:32:46;35.70;55.80
39021;DHT22;25188;51.958;5.842;2023-09-12T11:35:14;36.00;55.00
39021;DHT22;25188;51.958;5.842;2023-09-12T11:37:48;36.40;54.10
39021;DHT22;25188;51.958;5.842;2023-09-12T11:40:15;36.50;52.10
39021;DHT22;25188;51.958;5.842;2023-09-12T11:42:42;36.60;52.00
39021;DHT22;25188;51.958;5.842;2023-09-12T11:45:08;36.70;51.60
39021;DHT22;25188;51.958;5.842;2023-09-12T11:47:34;37.10;50.90
39021;DHT22;25188;51.958;5.842;2023-09-12T11:50:05;37.50;50.50
39021;DHT22;25188;51.958;5.842;2023-09-12T11:52:30;37.70;50.10
39021;DHT22;25188;51.958;5.842;2023-09-12T11:54:56;38.00;49.70
39021;DHT22;25188;51.958;5.842;2023-09-12T11:57:21;38.20;49.50
39021;DHT22;25188;51.958;5.842;2023-09-12T11:59:48;38.40;49.20
39021;DHT22;25188;51.958;5.842;2023-09-12T12:02:14;38.70;49.10
39021;DHT22;25188;51.958;5.842;2023-09-12T12:04:40;38.90;48.70
39021;DHT22;25188;51.958;5.842;2023-09-12T12:07:06;38.70;47.70
39021;DHT22;25188;51.958;5.842;2023-09-12T12:09:32;38.10;47.40
39021;DHT22;25188;51.958;5.842;2023-09-12T12:12:13;37.40;47.40
39021;DHT22;25188;51.958;5.842;2023-09-12T12:14:40;36.70;48.00
39021;DHT22;25188;51.958;5.842;2023-09-12T12:17:10;36.50;48.30
39021;DHT22;25188;51.958;5.842;2023-09-12T12:19:44;36.20;48.20
39021;DHT22;25188;51.958;5.842;2023-09-12T12:22:10;35.80;48.60
39021;DHT22;25188;51.958;5.842;2023-09-12T12:24:45;35.40;49.20
39021;DHT22;25188;51.958;5.842;2023-09-12T12:27:11;35.30;49.50
39021;DHT22;25188;51.958;5.842;2023-09-12T12:29:37;35.50;49.80
39021;DHT22;25188;51.958;5.842;2023-09-12T12:32:05;36.00;49.70
39021;DHT22;25188;51.958;5.842;2023-09-12T12:34:31;36.60;49.00
39021;DHT22;25188;51.958;5.842;2023-09-12T12:36:57;37.10;48.40
39021;DHT22;25188;51.958;5.842;2023-09-12T12:39:23;37.50;47.90
39021;DHT22;25188;51.958;5.842;2023-09-12T12:41:52;37.90;47.60
39021;DHT22;25188;51.958;5.842;2023-09-12T12:44:18;38.20;46.90
39021;DHT22;25188;51.958;5.842;2023-09-12T12:46:53;38.50;46.50
39021;DHT22;25188;51.958;5.842;2023-09-12T12:49:20;38.80;45.60
39021;DHT22;25188;51.958;5.842;2023-09-12T12:51:47;39.10;45.70
39021;DHT22;25188;51.958;5.842;2023-09-12T12:54:13;39.50;45.60
39021;DHT22;25188;51.958;5.842;2023-09-12T12:56:39;39.80;45.20
39021;DHT22;25188;51.958;5.842;2023-09-12T12:59:06;40.00;44.70
39021;DHT22;25188;51.958;5.842;2023-09-12T13:01:34;40.10;44.00
39021;DHT22;25188;51.958;5.842;2023-09-12T13:04:09;40.00;43.50
39021;DHT22;25188;51.958;5.842;2023-09-12T13:06:35;39.50;43.00
39021;DHT22;25188;51.958;5.842;2023-09-12T13:09:05;39.20;43.00
39021;DHT22;25188;51.958;5.842;2023-09-12T13:11:33;39.00;43.20
39021;DHT22;25188;51.958;5.842;2023-09-12T13:14:03;39.00;43.10
39021;DHT22;25188;51.958;5.842;2023-09-12T13:16:35;39.10;43.20
39021;DHT22;25188;51.958;5.842;2023-09-12T13:19:00;39.00;43.20
39021;DHT22;25188;51.958;5.842;2023-09-12T13:21:26;39.10;43.50
39021;DHT22;25188;51.958;5.842;2023-09-12T13:23:51;39.00;43.20
39021;DHT22;25188;51.958;5.842;2023-09-12T13:26:17;39.10;43.40
39021;DHT22;25188;51.958;5.842;2023-09-12T13:28:42;39.10;43.30
39021;DHT22;25188;51.958;5.842;2023-09-12T13:31:08;39.20;43.40
39021;DHT22;25188;51.958;5.842;2023-09-12T13:33:34;39.40;43.40
39021;DHT22;25188;51.958;5.842;2023-09-12T13:35:59;39.70;43.50
39021;DHT22;25188;51.958;5.842;2023-09-12T13:38:25;39.80;43.20
39021;DHT22;25188;51.958;5.842;2023-09-12T13:40:50;39.80;42.80
39021;DHT22;25188;51.958;5.842;2023-09-12T13:43:16;39.80;42.60
39021;DHT22;25188;51.958;5.842;2023-09-12T13:45:41;39.90;42.50
39021;DHT22;25188;51.958;5.842;2023-09-12T13:48:07;40.00;42.40
39021;DHT22;25188;51.958;5.842;2023-09-12T13:50:33;40.00;42.20
39021;DHT22;25188;51.958;5.842;2023-09-12T13:53:00;40.00;42.40
39021;DHT22;25188;51.958;5.842;2023-09-12T13:55:29;40.10;42.20
39021;DHT22;25188;51.958;5.842;2023-09-12T13:57:55;40.20;41.90
39021;DHT22;25188;51.958;5.842;2023-09-12T14:00:20;40.20;41.60
39021;DHT22;25188;51.958;5.842;2023-09-12T14:02:46;40.30;41.40
39021;DHT22;25188;51.958;5.842;2023-09-12T14:05:12;40.30;41.60
39021;DHT22;25188;51.958;5.842;2023-09-12T14:07:38;40.20;41.20
39021;DHT22;25188;51.958;5.842;2023-09-12T14:10:08;40.10;41.40
39021;DHT22;25188;51.958;5.842;2023-09-12T14:12:34;40.00;41.50
39021;DHT22;25188;51.958;5.842;2023-09-12T14:15:01;40.10;41.30
39021;DHT22;25188;51.958;5.842;2023-09-12T14:17:27;40.20;41.10
39021;DHT22;25188;51.958;5.842;2023-09-12T14:19:54;40.20;41.10
39021;DHT22;25188;51.958;5.842;2023-09-12T14:22:20;39.90;41.20
39021;DHT22;25188;51.958;5.842;2023-09-12T14:24:46;39.30;41.10
39021;DHT22;25188;51.958;5.842;2023-09-12T14:27:12;38.50;41.80
39021;DHT22;25188;51.958;5.842;2023-09-12T14:29:38;38.00;42.80
39021;DHT22;25188;51.958;5.842;2023-09-12T14:32:03;37.60;43.30
39021;DHT22;25188;51.958;5.842;2023-09-12T14:34:29;37.40;43.60
39021;DHT22;25188;51.958;5.842;2023-09-12T14:36:57;37.50;44.10
39021;DHT22;25188;51.958;5.842;2023-09-12T14:39:24;37.60;44.00
39021;DHT22;25188;51.958;5.842;2023-09-12T14:41:50;38.00;44.10
39021;DHT22;25188;51.958;5.842;2023-09-12T14:44:23;38.30;43.80
39021;DHT22;25188;51.958;5.842;2023-09-12T14:46:48;38.60;43.40
39021;DHT22;25188;51.958;5.842;2023-09-12T14:49:14;38.70;42.90
39021;DHT22;25188;51.958;5.842;2023-09-12T14:51:40;38.80;42.50
39021;DHT22;25188;51.958;5.842;2023-09-12T14:54:06;39.00;42.40
39021;DHT22;25188;51.958;5.842;2023-09-12T14:56:33;39.10;43.10
39021;DHT22;25188;51.958;5.842;2023-09-12T14:58:59;39.00;42.10
39021;DHT22;25188;51.958;5.842;2023-09-12T15:01:24;38.80;41.80
39021;DHT22;25188;51.958;5.842;2023-09-12T15:03:51;38.40;41.70
39021;DHT22;25188;51.958;5.842;2023-09-12T15:06:17;37.70;42.10
39021;DHT22;25188;51.958;5.842;2023-09-12T15:08:43;37.00;42.70
39021;DHT22;25188;51.958;5.842;2023-09-12T15:11:08;36.50;43.30
39021;DHT22;25188;51.958;5.842;2023-09-12T15:13:34;36.20;43.70
39021;DHT22;25188;51.958;5.842;2023-09-12T15:16:00;36.00;43.80
39021;DHT22;25188;51.958;5.842;2023-09-12T15:18:26;35.90;44.20
39021;DHT22;25188;51.958;5.842;2023-09-12T15:20:53;35.50;44.50
39021;DHT22;25188;51.958;5.842;2023-09-12T15:23:19;35.10;44.90
39021;DHT22;25188;51.958;5.842;2023-09-12T15:25:46;34.60;45.30
39021;DHT22;25188;51.958;5.842;2023-09-12T15:28:12;34.20;46.10
39021;DHT22;25188;51.958;5.842;2023-09-12T15:30:38;33.90;46.60
39021;DHT22;25188;51.958;5.842;2023-09-12T15:33:04;33.50;47.10
39021;DHT22;25188;51.958;5.842;2023-09-12T15:35:31;33.50;48.00
39021;DHT22;25188;51.958;5.842;2023-09-12T15:37:56;33.70;48.00